createdAt,value
2022-09-16T00:01:32.433Z,92.99
2022-09-16T00:04:01.134Z,92.26
2022-09-16T00:06:31.164Z,91.38
2022-09-16T00:09:01.956Z,91.26
2022-09-16T00:11:34.291Z,91.60
2022-09-16T00:14:04.665Z,91.86
2022-09-16T00:16:33.861Z,92.81
2022-09-16T00:19:03.440Z,92.95
2022-09-16T00:21:32.542Z,91.64
2022-09-16T00:24:01.306Z,92.62
2022-09-16T00:26:30.942Z,93.33
2022-09-16T00:28:59.700Z,93.05
2022-09-16T00:31:29.947Z,92.39
2022-09-16T00:33:58.590Z,91.94
2022-09-16T00:36:27.354Z,91.73
2022-09-16T00:38:56.359Z,92.52
2022-09-16T00:41:26.888Z,93.27
2022-09-16T00:43:58.899Z,92.69
2022-09-16T00:46:33.747Z,92.83
2022-09-16T00:49:07.215Z,92.27
2022-09-16T00:51:35.931Z,93.31
2022-09-16T00:54:05.813Z,93.31
2022-09-16T00:56:38.574Z,92.91
2022-09-16T00:59:10.789Z,93.55
2022-09-16T01:01:42.571Z,93.84
2022-09-16T01:04:16.096Z,93.56
2022-09-16T01:06:45.078Z,93.27
2022-09-16T01:09:14.009Z,93.32
2022-09-16T01:11:42.680Z,93.58
2022-09-16T01:14:29.223Z,93.80
2022-09-16T01:17:03.861Z,93.77
2022-09-16T01:19:47.988Z,93.98
2022-09-16T01:22:25.926Z,93.54
2022-09-16T01:25:01.891Z,93.26
2022-09-16T01:27:57.253Z,93.26
2022-09-16T01:30:40.904Z,93.25
2022-09-16T01:33:19.196Z,93.98
2022-09-16T01:36:12.390Z,93.19
2022-09-16T01:38:54.212Z,93.14
2022-09-16T01:41:28.222Z,93.05
2022-09-16T01:44:02.076Z,93.41
2022-09-16T01:46:39.316Z,92.25
2022-09-16T01:49:14.894Z,91.33
2022-09-16T01:51:50.778Z,91.48
2022-09-16T01:54:23.916Z,90.90
2022-09-16T01:56:56.241Z,91.23
2022-09-16T01:59:28.172Z,91.80
2022-09-16T02:02:02.210Z,91.70
2022-09-16T02:04:34.350Z,91.93
2022-09-16T02:07:05.914Z,92.80
2022-09-16T02:09:36.272Z,93.09
2022-09-16T02:12:07.980Z,93.64
2022-09-16T02:14:41.463Z,94.21
2022-09-16T02:17:13.160Z,94.45
2022-09-16T02:19:44.898Z,94.20
2022-09-16T02:22:16.121Z,93.81
2022-09-16T02:24:46.619Z,94.16
2022-09-16T02:27:17.800Z,94.37
2022-09-16T02:29:49.880Z,95.11
2022-09-16T02:32:21.433Z,94.89
2022-09-16T02:34:52.402Z,94.72
2022-09-16T02:37:23.961Z,94.39
2022-09-16T02:39:56.581Z,93.52
2022-09-16T02:42:25.329Z,94.16
2022-09-16T02:44:53.981Z,94.41
2022-09-16T02:47:30.866Z,94.38
2022-09-16T02:50:04.114Z,95.03
2022-09-16T02:52:37.707Z,94.89
2022-09-16T02:55:14.444Z,94.03
2022-09-16T02:57:43.415Z,93.41
2022-09-16T03:00:12.422Z,92.48
2022-09-16T03:02:42.633Z,92.61
2022-09-16T03:05:11.322Z,93.25
2022-09-16T03:07:41.199Z,93.35
2022-09-16T03:10:10.677Z,93.87
2022-09-16T03:12:49.628Z,94.51
2022-09-16T03:15:39.036Z,94.20
2022-09-16T03:18:30.495Z,94.52
2022-09-16T03:21:02.141Z,93.81
2022-09-16T03:23:44.585Z,93.12
2022-09-16T03:26:21.100Z,92.86
2022-09-16T03:28:57.239Z,93.96
2022-09-16T03:31:28.017Z,92.45
2022-09-16T03:34:03.759Z,93.65
2022-09-16T03:36:36.044Z,94.00
2022-09-16T03:39:05.369Z,94.07
2022-09-16T03:41:35.013Z,94.17
2022-09-16T03:44:04.532Z,94.21
2022-09-16T03:46:33.396Z,94.72
2022-09-16T03:49:03.858Z,94.10
2022-09-16T03:51:32.494Z,93.31
2022-09-16T03:54:01.177Z,93.46
2022-09-16T03:56:29.873Z,94.10
2022-09-16T03:58:58.499Z,93.94
2022-09-16T04:01:27.170Z,94.02
2022-09-16T04:03:55.823Z,94.58
2022-09-16T04:06:25.819Z,94.70
2022-09-16T04:08:54.527Z,94.36
2022-09-16T04:11:23.189Z,94.27
2022-09-16T04:13:51.785Z,93.64
2022-09-16T04:16:21.557Z,93.94
2022-09-16T04:18:50.518Z,93.76
2022-09-16T04:21:19.538Z,94.01
2022-09-16T04:23:49.871Z,93.33
2022-09-16T04:26:19.206Z,93.63
2022-09-16T04:28:47.982Z,94.38
2022-09-16T04:31:17.282Z,94.39
2022-09-16T04:33:45.958Z,94.35
2022-09-16T04:36:16.230Z,94.65
2022-09-16T04:38:47.416Z,94.90
2022-09-16T04:41:20.301Z,92.70
2022-09-16T04:43:53.154Z,93.44
2022-09-16T04:46:21.903Z,93.82
2022-09-16T04:48:51.123Z,94.36
2022-09-16T04:51:20.671Z,94.34
2022-09-16T04:53:50.217Z,93.61
2022-09-16T04:56:22.035Z,93.64
2022-09-16T04:58:52.422Z,93.06
2022-09-16T05:01:22.793Z,93.17
2022-09-16T05:03:54.330Z,93.32
2022-09-16T05:06:24.483Z,94.37
2022-09-16T05:08:54.453Z,95.81
2022-09-16T05:11:26.189Z,96.38
2022-09-16T05:13:54.997Z,95.51
2022-09-16T05:16:24.525Z,95.39
2022-09-16T05:18:55.356Z,95.23
2022-09-16T05:21:25.385Z,95.21
2022-09-16T05:23:55.889Z,95.54
2022-09-16T05:26:27.642Z,95.46
2022-09-16T05:28:56.610Z,95.63
2022-09-16T05:31:26.747Z,96.11
2022-09-16T05:33:56.548Z,95.53
2022-09-16T05:36:26.097Z,94.18
2022-09-16T05:39:20.924Z,93.69
2022-09-16T05:41:45.178Z,93.87
2022-09-16T05:44:14.498Z,94.27
2022-09-16T05:46:43.778Z,94.90
2022-09-16T05:49:12.918Z,95.31
2022-09-16T05:51:42.442Z,94.57
2022-09-16T05:54:11.169Z,95.41
2022-09-16T05:56:40.133Z,95.91
2022-09-16T05:59:12.873Z,97.22
2022-09-16T06:01:42.022Z,95.57
2022-09-16T06:04:12.387Z,93.83
2022-09-16T06:06:43.019Z,90.30
2022-09-16T06:09:14.111Z,90.95
2022-09-16T06:11:44.335Z,90.24
2022-09-16T06:14:15.874Z,89.37
2022-09-16T06:16:44.950Z,88.84
2022-09-16T06:19:15.521Z,90.19
2022-09-16T06:21:45.183Z,92.29
2022-09-16T06:24:14.656Z,90.10
2022-09-16T06:26:45.055Z,89.51
2022-09-16T06:29:15.891Z,87.82
2022-09-16T06:31:44.665Z,85.71
2022-09-16T06:34:16.879Z,84.98
2022-09-16T06:36:45.886Z,86.12
2022-09-16T06:39:16.135Z,86.29
2022-09-16T06:41:45.497Z,87.08
2022-09-16T06:44:15.571Z,87.16
2022-09-16T06:46:44.219Z,86.66
2022-09-16T06:49:13.308Z,87.13
2022-09-16T06:51:42.005Z,87.25
2022-09-16T06:54:11.250Z,86.29
2022-09-16T06:56:41.394Z,86.93
2022-09-16T06:59:11.337Z,86.82
2022-09-16T07:01:41.916Z,85.10
2022-09-16T07:04:13.141Z,85.11
2022-09-16T07:09:31.247Z,87.48
2022-09-16T07:12:00.293Z,87.94
2022-09-16T07:14:29.633Z,89.57
2022-09-16T07:17:00.371Z,89.77
2022-09-16T07:19:30.708Z,88.05
2022-09-16T07:21:59.458Z,87.67
2022-09-16T07:24:28.269Z,88.27
2022-09-16T07:26:56.996Z,89.36
2022-09-16T07:29:25.791Z,89.77
2022-09-16T07:31:54.931Z,90.00
2022-09-16T07:34:25.011Z,89.73
2022-09-16T07:36:53.944Z,88.95
2022-09-16T07:39:22.769Z,89.72
2022-09-16T07:41:51.481Z,87.81
2022-09-16T07:44:21.442Z,91.14
2022-09-16T07:46:51.349Z,90.59
2022-09-16T07:49:20.671Z,90.77
2022-09-16T07:51:50.772Z,91.66
2022-09-16T07:54:20.183Z,92.37
2022-09-16T07:56:49.795Z,92.65
2022-09-16T07:59:19.898Z,92.27
2022-09-16T08:01:49.641Z,90.73
2022-09-16T08:04:19.756Z,92.13
2022-09-16T08:06:50.028Z,92.94
2022-09-16T08:12:10.750Z,92.65
2022-09-16T08:14:39.607Z,91.48
2022-09-16T08:17:08.339Z,90.50
2022-09-16T08:19:38.477Z,91.22
2022-09-16T08:22:08.550Z,90.25
2022-09-16T08:24:37.234Z,92.77
2022-09-16T08:27:05.982Z,91.03
2022-09-16T08:29:34.808Z,92.33
2022-09-16T08:32:04.155Z,92.98
2022-09-16T08:34:32.888Z,91.14
2022-09-16T08:37:01.656Z,91.57
2022-09-16T08:39:32.011Z,93.13
2022-09-16T08:42:16.187Z,90.86
2022-09-16T08:44:51.719Z,92.02
2022-09-16T08:47:31.387Z,90.45
2022-09-16T08:50:01.259Z,90.88
2022-09-16T08:52:32.692Z,90.67
2022-09-16T08:55:04.900Z,91.98
2022-09-16T08:57:43.543Z,91.67
2022-09-16T09:00:15.774Z,91.69
2022-09-16T09:02:50.017Z,91.65
2022-09-16T09:05:24.567Z,92.38
2022-09-16T09:08:01.631Z,92.30
2022-09-16T09:10:37.539Z,94.06
2022-09-16T09:13:14.966Z,91.26
2022-09-16T09:15:48.723Z,93.16
2022-09-16T09:18:29.530Z,93.77
2022-09-16T09:21:15.543Z,94.58
2022-09-16T09:24:03.359Z,91.07
2022-09-16T09:26:37.789Z,92.72
2022-09-16T09:29:43.847Z,92.95
2022-09-16T09:32:21.338Z,92.22
2022-09-16T09:35:08.213Z,91.48
2022-09-16T09:37:48.896Z,93.25
2022-09-16T09:40:21.725Z,91.17
2022-09-16T09:42:54.687Z,88.74
2022-09-16T09:45:27.319Z,91.52
2022-09-16T09:47:59.064Z,90.82
2022-09-16T09:50:31.044Z,91.54
2022-09-16T09:53:06.767Z,91.40
2022-09-16T09:55:36.607Z,93.12
2022-09-16T09:58:14.642Z,89.75
2022-09-16T10:00:43.442Z,90.40
2022-09-16T10:03:14.572Z,92.16
2022-09-16T10:05:43.776Z,87.38
2022-09-16T10:08:19.106Z,90.24
2022-09-16T10:10:51.449Z,89.84
2022-09-16T10:13:22.682Z,88.02
2022-09-16T10:15:55.753Z,88.30
2022-09-16T10:18:29.671Z,91.30
2022-09-16T10:21:03.800Z,90.26
2022-09-16T10:23:33.206Z,91.59
2022-09-16T10:26:18.688Z,91.38
2022-09-16T10:29:00.679Z,91.53
2022-09-16T10:31:36.704Z,91.05
2022-09-16T10:34:07.138Z,88.11
2022-09-16T10:36:36.647Z,84.83
2022-09-16T10:39:06.033Z,84.89
2022-09-16T10:41:36.576Z,84.59
2022-09-16T10:44:17.127Z,88.48
2022-09-16T10:46:54.542Z,87.54
2022-09-16T10:49:28.800Z,87.08
2022-09-16T10:52:08.747Z,87.74
2022-09-16T10:54:37.533Z,87.14
2022-09-16T10:57:22.202Z,86.95
2022-09-16T11:00:04.074Z,86.83
2022-09-16T11:03:03.252Z,84.39
2022-09-16T11:05:35.134Z,82.65
2022-09-16T11:08:10.070Z,81.55
2022-09-16T11:10:43.450Z,84.96
2022-09-16T11:13:37.122Z,83.09
2022-09-16T11:16:20.718Z,83.25
2022-09-16T11:18:57.042Z,84.14
2022-09-16T11:21:45.360Z,79.70
2022-09-16T11:24:43.433Z,82.27
2022-09-16T11:27:17.369Z,83.42
2022-09-16T11:29:55.688Z,83.95
2022-09-16T11:32:33.555Z,83.71
2022-09-16T11:35:17.470Z,83.37
2022-09-16T11:37:51.541Z,81.66
2022-09-16T11:40:28.638Z,81.23
2022-09-16T11:43:03.060Z,82.81
2022-09-16T11:45:45.244Z,82.95
2022-09-16T11:48:40.571Z,83.57
2022-09-16T11:51:18.008Z,81.20
2022-09-16T11:54:06.811Z,81.98
2022-09-16T11:56:39.000Z,81.30
2022-09-16T11:59:14.301Z,79.98
2022-09-16T12:01:45.705Z,79.99
2022-09-16T12:04:19.601Z,78.11
2022-09-16T12:06:55.485Z,78.40
2022-09-16T12:09:30.795Z,78.19
2022-09-16T12:12:05.552Z,77.07
2022-09-16T12:14:37.892Z,76.68
2022-09-16T12:17:10.068Z,77.08
2022-09-16T12:19:44.786Z,75.68
2022-09-16T12:22:17.448Z,75.45
2022-09-16T12:24:49.987Z,72.80
2022-09-16T12:27:34.771Z,65.86
2022-09-16T12:30:07.015Z,66.22
2022-09-16T12:32:45.165Z,65.38
2022-09-16T12:35:16.946Z,66.25
2022-09-16T12:37:49.032Z,61.12
2022-09-16T12:40:20.297Z,63.05
2022-09-16T12:43:05.638Z,64.60
2022-09-16T12:45:56.167Z,64.59
2022-09-16T12:48:57.185Z,62.58
2022-09-16T12:51:38.370Z,63.48
2022-09-16T12:54:22.553Z,62.97
2022-09-16T12:57:08.979Z,62.58
2022-09-16T13:00:18.684Z,63.10
2022-09-16T13:02:49.925Z,61.35
2022-09-16T13:05:23.550Z,63.82
2022-09-16T13:07:55.902Z,63.01
2022-09-16T13:10:53.835Z,62.01
2022-09-16T13:13:26.219Z,62.96
2022-09-16T13:15:57.081Z,64.37
2022-09-16T13:18:39.707Z,63.95
2022-09-16T13:21:15.005Z,61.11
2022-09-16T13:23:46.935Z,61.85
2022-09-16T13:26:16.053Z,65.26
2022-09-16T13:28:46.406Z,64.33
2022-09-16T13:31:20.808Z,62.65
2022-09-16T13:33:50.759Z,60.94
2022-09-16T13:36:37.433Z,59.58
2022-09-16T13:39:12.863Z,60.00
2022-09-16T13:41:43.176Z,62.24
2022-09-16T13:44:30.391Z,60.90
2022-09-16T13:47:16.263Z,60.59
2022-09-16T13:49:49.207Z,58.80
2022-09-16T13:52:22.926Z,58.93
2022-09-16T13:55:12.205Z,58.86
2022-09-16T13:57:52.910Z,57.49
2022-09-16T14:00:23.678Z,61.22
2022-09-16T14:03:23.588Z,59.57
2022-09-16T14:06:39.807Z,59.57
2022-09-16T14:09:19.505Z,59.98
2022-09-16T14:11:54.809Z,57.41
2022-09-16T14:17:20.622Z,57.96
2022-09-16T14:19:50.257Z,58.20
2022-09-16T14:22:21.709Z,57.62
2022-09-16T14:24:56.695Z,57.66
2022-09-16T14:27:39.301Z,57.97
2022-09-16T14:30:16.850Z,57.53
2022-09-16T14:32:46.286Z,57.02
2022-09-16T14:35:20.123Z,55.36
2022-09-16T14:37:50.760Z,56.02
2022-09-16T14:40:21.911Z,54.30
2022-09-16T14:42:55.100Z,54.11
2022-09-16T14:45:23.917Z,53.48
2022-09-16T14:47:54.006Z,53.46
2022-09-16T14:50:25.067Z,53.89
2022-09-16T14:52:55.250Z,53.95
2022-09-16T14:55:26.353Z,54.65
2022-09-16T14:57:56.681Z,55.54
2022-09-16T15:00:27.649Z,54.82
2022-09-16T15:02:59.124Z,55.08
2022-09-16T15:05:33.128Z,54.63
2022-09-16T15:08:15.700Z,53.44
2022-09-16T15:10:52.450Z,54.97
2022-09-16T15:13:39.374Z,54.84
2022-09-16T15:16:11.895Z,54.42
2022-09-16T15:18:43.496Z,55.79
2022-09-16T15:21:19.415Z,54.28
2022-09-16T15:23:49.527Z,56.16
2022-09-16T15:26:19.615Z,56.56
2022-09-16T15:29:00.613Z,56.24
2022-09-16T15:31:31.965Z,56.58
2022-09-16T15:34:02.234Z,56.98
2022-09-16T15:36:38.910Z,56.30
2022-09-16T15:39:23.586Z,54.01
2022-09-16T15:42:05.921Z,54.67
2022-09-16T15:44:37.543Z,55.71
2022-09-16T15:47:06.598Z,54.10
2022-09-16T15:49:39.231Z,55.19
2022-09-16T15:52:10.466Z,55.39
2022-09-16T15:54:47.845Z,54.52
2022-09-16T15:57:24.074Z,53.84
2022-09-16T16:00:08.600Z,54.82
2022-09-16T16:02:42.150Z,55.57
2022-09-16T16:05:14.249Z,54.56
2022-09-16T16:07:44.878Z,54.66
2022-09-16T16:10:16.862Z,54.96
2022-09-16T16:12:47.835Z,55.07
2022-09-16T16:15:22.254Z,56.12
2022-09-16T16:17:51.362Z,54.52
2022-09-16T16:20:21.779Z,55.02
2022-09-16T16:22:51.139Z,56.26
2022-09-16T16:25:20.165Z,55.74
2022-09-16T16:27:48.869Z,55.62
2022-09-16T16:30:19.225Z,54.63
2022-09-16T16:32:48.631Z,55.02
2022-09-16T16:35:17.495Z,54.56
2022-09-16T16:37:47.519Z,53.90
2022-09-16T16:40:16.870Z,53.51
2022-09-16T16:42:45.626Z,54.19
2022-09-16T16:45:14.903Z,55.11
2022-09-16T16:47:46.239Z,53.88
2022-09-16T16:50:14.945Z,55.66
2022-09-16T16:52:44.799Z,53.67
2022-09-16T16:55:13.460Z,54.54
2022-09-16T16:57:42.106Z,54.02
2022-09-16T17:00:13.702Z,55.13
2022-09-16T17:02:42.478Z,54.83
2022-09-16T17:05:13.020Z,57.20
2022-09-16T17:07:41.763Z,55.81
2022-09-16T17:10:11.218Z,55.52
2022-09-16T17:12:40.150Z,56.74
2022-09-16T17:15:09.566Z,56.69
2022-09-16T17:17:38.394Z,55.81
2022-09-16T17:20:08.022Z,57.11
2022-09-16T17:22:38.162Z,60.12
2022-09-16T17:25:07.374Z,56.61
2022-09-16T17:27:36.002Z,56.84
2022-09-16T17:30:05.086Z,57.39
2022-09-16T17:32:33.703Z,58.07
2022-09-16T17:35:02.473Z,57.56
2022-09-16T17:37:31.301Z,57.51
2022-09-16T17:40:01.402Z,58.57
2022-09-16T17:42:30.069Z,59.68
2022-09-16T17:44:59.336Z,63.88
2022-09-16T17:47:29.919Z,64.58
2022-09-16T17:49:59.394Z,66.77
2022-09-16T17:52:28.310Z,68.03
2022-09-16T17:54:57.004Z,67.30
2022-09-16T17:57:31.169Z,66.90
2022-09-16T18:00:01.664Z,68.99
2022-09-16T18:02:30.500Z,73.16
2022-09-16T18:04:59.180Z,74.24
2022-09-16T18:07:28.007Z,77.92
2022-09-16T18:09:56.794Z,80.92
2022-09-16T18:12:26.783Z,81.72
2022-09-16T18:14:55.421Z,82.13
2022-09-16T18:17:24.083Z,86.32
2022-09-16T18:19:52.754Z,87.52
2022-09-16T18:22:21.388Z,86.76
2022-09-16T18:24:50.047Z,85.67
2022-09-16T18:27:18.728Z,85.33
2022-09-16T18:29:48.706Z,88.24
2022-09-16T18:32:17.545Z,88.42
2022-09-16T18:34:46.146Z,88.62
2022-09-16T18:37:14.947Z,89.43
2022-09-16T18:39:44.069Z,89.03
2022-09-16T18:42:12.747Z,89.43
2022-09-16T18:44:41.441Z,91.01
2022-09-16T18:47:11.647Z,88.06
2022-09-16T18:49:40.297Z,88.48
2022-09-16T18:52:09.088Z,90.51
2022-09-16T18:54:37.782Z,91.95
2022-09-16T18:57:07.357Z,91.98
2022-09-16T18:59:36.997Z,92.20
2022-09-16T19:02:06.314Z,93.99
2022-09-16T19:04:39.677Z,94.06
2022-09-16T19:07:09.868Z,94.26
2022-09-16T19:09:40.142Z,94.02
2022-09-16T19:12:10.864Z,93.80
2022-09-16T19:14:40.018Z,95.49
2022-09-16T19:17:08.749Z,95.31
2022-09-16T19:19:38.934Z,93.14
2022-09-16T19:22:07.650Z,93.84
2022-09-16T19:24:37.203Z,94.54
2022-09-16T19:27:06.231Z,94.31
2022-09-16T19:29:34.938Z,93.96
2022-09-16T19:32:03.736Z,92.70
2022-09-16T19:34:32.503Z,93.12
2022-09-16T19:37:02.623Z,93.76
2022-09-16T19:39:31.755Z,94.96
2022-09-16T19:42:03.513Z,94.42
2022-09-16T19:44:32.484Z,94.52
2022-09-16T19:47:01.386Z,94.16
2022-09-16T19:49:30.426Z,93.30
2022-09-16T19:51:59.204Z,94.57
2022-09-16T19:54:29.351Z,94.69
2022-09-16T19:56:59.850Z,95.26
2022-09-16T19:59:28.622Z,93.91
2022-09-16T20:01:58.222Z,94.65
2022-09-16T20:04:27.417Z,95.43
2022-09-16T20:06:56.265Z,95.62
2022-09-16T20:09:24.968Z,95.41
2022-09-16T20:11:55.062Z,95.60
2022-09-16T20:14:33.481Z,94.27
2022-09-16T20:17:02.387Z,95.13
2022-09-16T20:19:31.215Z,94.42
2022-09-16T20:22:01.412Z,94.55
2022-09-16T20:24:30.397Z,94.34
2022-09-16T20:27:00.519Z,93.08
2022-09-16T20:29:29.291Z,90.04
2022-09-16T20:31:58.000Z,88.46
2022-09-16T20:34:26.885Z,88.71
2022-09-16T20:36:55.802Z,88.53
2022-09-16T20:39:25.779Z,86.64
2022-09-16T20:41:54.626Z,88.88
2022-09-16T20:44:24.699Z,91.27
2022-09-16T20:46:53.494Z,89.80
2022-09-16T20:49:24.681Z,92.16
2022-09-16T20:51:53.308Z,91.04
2022-09-16T20:54:22.173Z,89.69
2022-09-16T20:56:51.139Z,89.19
2022-09-16T20:59:21.455Z,89.47
2022-09-16T21:01:51.999Z,92.04
2022-09-16T21:04:21.163Z,92.34
2022-09-16T21:06:49.835Z,91.45
2022-09-16T21:09:19.585Z,92.02
2022-09-16T21:11:49.740Z,92.21
2022-09-16T21:14:21.429Z,90.61
2022-09-16T21:16:52.328Z,91.88
2022-09-16T21:19:20.980Z,92.16
2022-09-16T21:21:49.850Z,93.22
2022-09-16T21:24:18.753Z,94.42
2022-09-16T21:26:47.585Z,93.35
2022-09-16T21:29:18.899Z,93.80
2022-09-16T21:31:48.485Z,94.61
2022-09-16T21:34:20.491Z,93.32
2022-09-16T21:36:49.692Z,93.26
2022-09-16T21:39:19.495Z,91.83
2022-09-16T21:41:49.131Z,92.06
2022-09-16T21:44:18.377Z,91.55
2022-09-16T21:46:47.230Z,93.35
2022-09-16T21:49:22.813Z,93.91
2022-09-16T21:51:52.679Z,92.48
2022-09-16T21:54:21.482Z,94.21
2022-09-16T21:56:50.943Z,93.25
2022-09-16T21:59:20.484Z,89.32
2022-09-16T22:01:50.547Z,85.66
2022-09-16T22:04:22.669Z,88.25
2022-09-16T22:06:53.899Z,88.46
2022-09-16T22:09:22.939Z,84.88
2022-09-16T22:11:52.063Z,86.84
2022-09-16T22:14:20.743Z,87.30
2022-09-16T22:16:52.075Z,88.42
2022-09-16T22:19:22.385Z,87.92
2022-09-16T22:21:52.083Z,84.06
2022-09-16T22:24:21.412Z,81.88
2022-09-16T22:26:51.736Z,83.13
2022-09-16T22:29:20.624Z,82.56
2022-09-16T22:31:49.418Z,81.86
2022-09-16T22:34:18.319Z,80.21
2022-09-16T22:36:48.422Z,80.77
2022-09-16T22:39:19.463Z,81.96
2022-09-16T22:41:48.263Z,81.75
2022-09-16T22:44:16.885Z,82.01
2022-09-16T22:46:46.684Z,81.58
2022-09-16T22:49:15.848Z,85.00
2022-09-16T22:51:44.668Z,85.86
2022-09-16T22:54:14.787Z,83.23
2022-09-16T22:56:44.367Z,85.44
2022-09-16T22:59:17.152Z,82.82
2022-09-16T23:01:46.002Z,84.08
2022-09-16T23:04:15.157Z,84.62
2022-09-16T23:06:43.820Z,87.77
2022-09-16T23:09:14.704Z,84.45
2022-09-16T23:11:44.024Z,83.57
2022-09-16T23:14:14.669Z,83.49
2022-09-16T23:16:43.217Z,86.75
2022-09-16T23:19:12.960Z,84.87
2022-09-16T23:21:42.077Z,84.62
2022-09-16T23:24:16.788Z,86.03
2022-09-16T23:26:47.625Z,85.76
2022-09-16T23:29:18.019Z,83.59
2022-09-16T23:31:46.750Z,83.18
2022-09-16T23:34:17.194Z,83.30
2022-09-16T23:36:46.137Z,82.38
2022-09-16T23:39:17.256Z,86.12
2022-09-16T23:41:46.413Z,87.42
2022-09-16T23:44:15.943Z,85.51
2022-09-16T23:46:45.029Z,85.68
2022-09-16T23:49:16.766Z,86.34
2022-09-16T23:51:45.387Z,86.34
2022-09-16T23:54:14.129Z,86.38
2022-09-16T23:56:44.383Z,84.74
2022-09-16T23:59:13.001Z,85.59
